Time;durP1;ratioP1;P1;durP2;ratioP2;P2;SDS_P1;SDS_P2;PMS_P1;PMS_P2;Temp;Humidity;BMP_temperature;BMP_pressure;BME280_temperature;BME280_humidity;BME280_pressure;Samples;Min_cycle;Max_cycle;Signal;HPM_P1;HPM_P2
2022/12/22 03:28:05;;;;;;;39.08;19.25;;;;;;;1.77;81.05;98162.44;5094385;28;20093;-69
2022/12/22 03:30:31;;;;;;;36.58;18.88;;;;;;;1.77;80.39;98162.44;5093542;28;20034;-68
2022/12/22 03:32:57;;;;;;;37.58;18.77;;;;;;;1.76;80.08;98165.38;5093802;28;20079;-68
2022/12/22 03:35:22;;;;;;;34.45;18.23;;;;;;;1.74;80.76;98162.91;5092958;28;20085;-68
2022/12/22 03:37:48;;;;;;;39.13;19.05;;;;;;;1.75;80.68;98161.03;5094546;28;20035;-68
2022/12/22 03:40:13;;;;;;;31.77;17.88;;;;;;;1.70;80.80;98161.78;5093995;28;20080;-68
2022/12/22 03:48:07;;;;;;;38.33;18.65;;;;;;;1.70;80.53;98150.94;5093892;28;20039;-68
2022/12/22 03:50:32;;;;;;;38.13;18.58;;;;;;;1.70;80.78;98160.94;5093577;28;20028;-68
2022/12/22 03:52:57;;;;;;;40.13;20.10;;;;;;;1.69;80.54;98152.03;5093291;28;20049;-68
2022/12/22 03:55:23;;;;;;;67.38;27.85;;;;;;;1.69;81.37;98159.28;5093358;28;20050;-68
2022/12/22 03:57:48;;;;;;;45.85;20.02;;;;;;;1.67;81.44;98150.59;5093236;28;20379;-68
2022/12/22 04:00:14;;;;;;;38.08;18.65;;;;;;;1.68;80.39;98152.25;5093348;28;20032;-68
2022/12/22 04:02:40;;;;;;;40.83;20.35;;;;;;;1.69;81.10;98149.31;5093390;28;20102;-68
2022/12/22 04:05:05;;;;;;;39.88;19.27;;;;;;;1.71;80.83;98146.34;5093155;28;20102;-68
2022/12/22 04:07:31;;;;;;;36.10;19.85;;;;;;;1.72;81.18;98150.69;5093271;28;20075;-68
2022/12/22 04:12:55;;;;;;;39.60;20.17;;;;;;;1.74;81.24;98151.28;5093510;28;20058;-68
2022/12/22 04:15:30;;;;;;;37.40;19.13;;;;;;;1.73;81.25;98145.06;5093222;28;20035;-67
2022/12/22 04:17:57;;;;;;;38.80;20.20;;;;;;;1.74;81.37;98157.50;5093206;28;20051;-67
2022/12/22 04:20:27;;;;;;;39.05;19.42;;;;;;;1.75;81.39;98159.16;5093035;28;20547;-68
2022/12/22 04:22:54;;;;;;;39.70;19.85;;;;;;;1.76;81.56;98146.44;5092884;28;20540;-68
2022/12/22 04:25:19;;;;;;;38.30;20.00;;;;;;;1.76;80.74;98146.44;5092876;28;20530;-68
2022/12/22 04:27:46;;;;;;;38.00;19.48;;;;;;;1.77;80.70;98135.38;5092756;28;20020;-68
2022/12/22 04:30:12;;;;;;;33.50;17.92;;;;;;;1.78;80.76;98141.59;5092818;28;20107;-68
2022/12/22 04:32:37;;;;;;;36.25;19.02;;;;;;;1.78;81.39;98153.25;5074715;28;20565;-68
2022/12/22 04:35:04;;;;;;;32.53;18.25;;;;;;;1.80;80.78;98144.06;5092885;28;20054;-69
2022/12/22 04:37:29;;;;;;;35.75;19.10;;;;;;;1.82;81.14;98150.06;5092476;28;20028;-68
2022/12/22 04:39:55;;;;;;;34.33;17.98;;;;;;;1.83;81.02;98149.78;5092518;28;20570;-67
2022/12/22 04:42:21;;;;;;;35.55;18.38;;;;;;;1.86;80.93;98151.19;5092437;28;20166;-67
2022/12/22 04:44:46;;;;;;;30.75;16.60;;;;;;;1.89;80.83;98145.28;5092902;28;20062;-68
2022/12/22 04:47:12;;;;;;;35.75;19.20;;;;;;;1.91;81.25;98138.56;5092517;28;20024;-67
2022/12/22 04:49:37;;;;;;;35.50;18.35;;;;;;;1.92;81.19;98132.09;5074202;28;20024;-68
2022/12/22 04:52:03;;;;;;;34.15;16.55;;;;;;;1.91;81.04;98122.34;5092508;28;20030;-68
2022/12/22 04:54:28;;;;;;;34.15;18.70;;;;;;;1.90;81.37;98112.59;5092706;28;20102;-67
2022/12/22 04:56:53;;;;;;;31.35;17.02;;;;;;;1.90;81.37;98120.72;5092308;28;20047;-68
2022/12/22 04:59:19;;;;;;;43.88;20.17;;;;;;;1.92;80.80;98112.34;5092537;28;20028;-68
2022/12/22 05:01:44;;;;;;;35.35;17.45;;;;;;;1.90;80.81;98109.06;5092390;28;20042;-68
2022/12/22 05:04:09;;;;;;;33.53;16.98;;;;;;;1.89;81.60;98105.53;5092498;28;20055;-68
2022/12/22 05:06:35;;;;;;;39.42;18.48;;;;;;;1.90;81.39;98109.06;5092305;28;20020;-67
2022/12/22 05:09:00;;;;;;;32.38;16.45;;;;;;;1.91;81.51;98102.56;5092553;28;20457;-67
2022/12/22 05:11:26;;;;;;;33.13;17.42;;;;;;;1.89;81.62;98105.53;5073871;28;20438;-67
2022/12/22 05:13:51;;;;;;;32.78;17.15;;;;;;;1.90;81.70;98093.66;5092412;28;20012;-68
2022/12/22 05:16:16;;;;;;;38.30;18.00;;;;;;;1.90;81.44;98103.66;5092245;28;20024;-68
2022/12/22 05:18:44;;;;;;;33.53;16.38;;;;;;;1.90;81.25;98098.25;5092111;28;20038;-68
2022/12/22 05:21:17;;;;;;;32.72;16.85;;;;;;;1.92;80.93;98098.81;5073589;28;20099;-67
2022/12/22 05:23:43;;;;;;;36.78;18.58;;;;;;;1.93;81.12;98097.75;5091949;28;20035;-68
2022/12/22 05:26:09;;;;;;;31.08;17.27;;;;;;;1.95;81.14;98097.50;5092098;28;20475;-68
2022/12/22 05:28:34;;;;;;;37.85;18.05;;;;;;;1.97;81.52;98096.19;5091887;28;20024;-67
2022/12/22 05:31:10;;;;;;;36.58;18.45;;;;;;;1.98;81.62;98097.00;5092046;28;20036;-67
2022/12/22 05:33:35;;;;;;;36.17;18.23;;;;;;;2.00;81.95;98111.09;5091811;28;20028;-68
2022/12/22 05:36:01;;;;;;;36.28;16.58;;;;;;;1.99;81.37;98104.88;5091995;28;20468;-67
2022/12/22 05:38:27;;;;;;;32.08;16.27;;;;;;;2.01;81.45;98093.81;5091616;28;20035;-68
2022/12/22 05:40:52;;;;;;;34.13;17.23;;;;;;;2.01;81.19;98088.41;5091922;28;20032;-68
2022/12/22 05:43:19;;;;;;;31.00;16.30;;;;;;;2.04;81.30;98096.81;5091918;28;20024;-68
2022/12/22 05:45:44;;;;;;;39.58;23.65;;;;;;;2.07;82.10;98090.91;5091861;28;20487;-67
2022/12/22 05:48:10;;;;;;;37.78;19.08;;;;;;;2.11;81.68;98090.41;5073646;28;20023;-67
2022/12/22 05:50:36;;;;;;;33.33;16.77;;;;;;;2.13;81.85;98089.09;5091521;28;20032;-67
2022/12/22 05:53:01;;;;;;;33.80;16.60;;;;;;;2.16;81.31;98094.00;5091571;28;20487;-67
2022/12/22 05:55:27;;;;;;;36.33;19.00;;;;;;;2.20;81.15;98095.13;5091418;28;20065;-68
2022/12/22 05:57:52;;;;;;;35.30;19.10;;;;;;;2.26;81.27;98101.44;5090123;28;20028;-67
2022/12/22 06:00:18;;;;;;;35.13;17.50;;;;;;;2.28;81.52;98096.59;5095201;28;20325;-67
2022/12/22 06:02:44;;;;;;;41.50;20.52;;;;;;;2.30;81.72;98086.31;5094745;28;20479;-68
2022/12/22 06:05:12;;;;;;;36.08;17.83;;;;;;;2.32;81.82;98077.97;5095071;28;20077;-68
2022/12/22 06:07:37;;;;;;;39.97;19.77;;;;;;;2.31;81.95;98079.84;5095410;28;20426;-68
2022/12/22 06:10:05;;;;;;;35.90;18.70;;;;;;;2.32;81.19;98072.56;5095584;28;20113;-67
2022/12/22 06:12:31;;;;;;;40.72;21.05;;;;;;;2.33;81.86;98077.72;5095487;28;20487;-68
2022/12/22 06:14:56;;;;;;;41.83;19.70;;;;;;;2.34;82.11;98079.34;5095604;28;20028;-65
2022/12/22 06:17:22;;;;;;;39.28;19.92;;;;;;;2.35;81.50;98075.56;5095122;28;20099;-65
2022/12/22 06:19:47;;;;;;;43.83;22.10;;;;;;;2.34;81.95;98073.94;5095006;28;20032;-66
2022/12/22 06:22:12;;;;;;;46.63;23.45;;;;;;;2.32;81.69;98070.66;5095148;28;20119;-66
2022/12/22 06:24:38;;;;;;;44.80;21.65;;;;;;;2.31;81.92;98076.34;5095056;28;20024;-65
2022/12/22 06:27:04;;;;;;;41.15;21.67;;;;;;;2.30;82.23;98080.13;5095415;28;20028;-66
2022/12/22 06:29:29;;;;;;;37.53;19.80;;;;;;;2.29;81.83;98068.47;5094127;28;20020;-65
2022/12/22 06:31:55;;;;;;;40.53;21.52;;;;;;;2.28;81.96;98085.75;5094680;28;20031;-65
2022/12/22 06:34:21;;;;;;;37.50;18.88;;;;;;;2.26;81.56;98077.06;5095269;28;20059;-65
2022/12/22 06:36:47;;;;;;;33.22;17.30;;;;;;;2.26;82.09;98074.38;5095036;28;20027;-66
2022/12/22 06:39:14;;;;;;;49.58;20.65;;;;;;;2.25;82.40;98080.84;5093984;28;20040;-66
2022/12/22 06:44:23;;;;;;;27.55;14.38;;;;;;;2.25;82.32;98067.31;5095047;28;20035;-66
2022/12/22 06:46:49;;;;;;;28.83;15.07;;;;;;;2.24;81.64;98076.53;5094898;28;20556;-66
2022/12/22 06:49:15;;;;;;;31.25;16.15;;;;;;;2.25;81.91;98075.44;5091150;28;20453;-66
2022/12/22 06:51:40;;;;;;;31.00;16.40;;;;;;;2.26;82.07;98073.56;5093933;28;20464;-66
2022/12/22 06:54:05;;;;;;;29.40;16.20;;;;;;;2.27;82.11;98077.91;5093977;28;20024;-67
2022/12/22 06:56:31;;;;;;;29.63;17.38;;;;;;;2.28;81.85;98074.13;5094356;28;20032;-66
2022/12/22 06:58:56;;;;;;;35.45;21.17;;;;;;;2.30;81.77;98063.88;5093855;28;20114;-67
2022/12/22 07:01:22;;;;;;;34.05;20.83;;;;;;;2.32;81.60;98059.03;5093201;28;20063;-66
2022/12/22 07:03:47;;;;;;;31.08;19.20;;;;;;;2.34;81.50;98067.72;5093218;28;20472;-67
2022/12/22 07:06:13;;;;;;;32.33;19.13;;;;;;;2.35;81.22;98059.34;5076171;28;20024;-66
2022/12/22 07:08:38;;;;;;;30.17;17.23;;;;;;;2.37;82.10;98059.09;5093355;28;20024;-66
2022/12/22 07:11:04;;;;;;;31.05;16.73;;;;;;;2.40;82.07;98064.00;5093273;28;20024;-67
2022/12/22 07:13:32;;;;;;;28.00;15.60;;;;;;;2.41;81.70;98072.94;5092683;28;20472;-66
2022/12/22 07:15:59;;;;;;;29.60;16.25;;;;;;;2.41;81.31;98060.22;5091101;28;20024;-66
2022/12/22 07:18:25;;;;;;;31.33;16.60;;;;;;;2.42;81.85;98074.56;5089634;28;20114;-66
2022/12/22 07:20:51;;;;;;;29.90;15.55;;;;;;;2.42;82.10;98061.03;5092668;28;20032;-66
2022/12/22 07:23:16;;;;;;;30.92;15.80;;;;;;;2.43;82.18;98057.25;5092632;28;20028;-66
2022/12/22 07:25:42;;;;;;;27.17;14.88;;;;;;;2.44;81.83;98059.72;5092969;28;20028;-65
2022/12/22 07:28:07;;;;;;;31.80;18.13;;;;;;;2.45;81.99;98057.81;5071809;28;20035;-67
2022/12/22 07:30:34;;;;;;;29.38;15.60;;;;;;;2.45;81.69;98061.34;5090843;28;20034;-67
2022/12/22 07:32:59;;;;;;;35.90;17.52;;;;;;;2.45;81.50;98069.47;5092391;28;20020;-68
2022/12/22 07:35:25;;;;;;;37.33;19.58;;;;;;;2.44;81.85;98070.56;5087022;28;20032;-68
2022/12/22 07:37:50;;;;;;;37.55;18.35;;;;;;;2.49;81.29;98080.63;5091521;28;20032;-68
2022/12/22 07:40:15;;;;;;;35.88;18.67;;;;;;;2.48;81.53;98068.94;5088882;28;20090;-67
2022/12/22 07:42:44;;;;;;;34.60;16.92;;;;;;;2.52;81.60;98075.50;5090075;28;20028;-67
2022/12/22 07:45:16;;;;;;;37.28;18.60;;;;;;;2.53;81.38;98065.50;5090271;28;20016;-68
2022/12/22 07:47:43;;;;;;;45.00;19.30;;;;;;;2.55;81.87;98065.25;5091550;28;20504;-68
2022/12/22 07:50:31;;;;;;;36.70;17.10;;;;;;;2.56;81.40;98067.72;5090774;28;20032;-68
2022/12/22 07:52:56;;;;;;;34.35;17.42;;;;;;;2.60;81.15;98071.53;5089601;28;20024;-67
2022/12/22 07:55:24;;;;;;;33.67;17.77;;;;;;;2.65;81.72;98073.47;5091319;28;20031;-67
2022/12/22 07:57:50;;;;;;;36.17;16.77;;;;;;;2.67;81.50;98074.84;5073007;28;20442;-67
2022/12/22 08:00:17;;;;;;;35.38;17.60;;;;;;;2.72;81.57;98070.56;5090447;28;20079;-66
2022/12/22 08:02:47;;;;;;;44.92;22.30;;;;;;;2.75;81.25;98060.06;5090880;28;20274;-66
2022/12/22 08:05:13;;;;;;;61.83;32.50;;;;;;;2.77;81.18;98063.34;5091111;28;20028;-66
2022/12/22 08:07:38;;;;;;;59.22;29.25;;;;;;;2.80;80.96;98054.69;5069872;28;20032;-69
2022/12/22 08:10:04;;;;;;;61.63;29.42;;;;;;;2.88;80.93;98060.69;5088897;28;20373;-67
2022/12/22 08:12:31;;;;;;;40.70;21.23;;;;;;;2.94;81.22;98054.28;5086450;28;20484;-67
2022/12/22 08:14:57;;;;;;;31.30;14.85;;;;;;;3.00;81.97;98055.16;5088893;28;20024;-66
2022/12/22 08:17:22;;;;;;;30.92;15.73;;;;;;;3.07;81.69;98042.19;5089596;28;20079;-66
2022/12/22 08:19:48;;;;;;;28.25;15.02;;;;;;;3.11;81.80;98037.88;5089503;28;20456;-67
2022/12/22 08:22:13;;;;;;;27.40;15.35;;;;;;;3.15;81.39;98044.44;5088519;28;20062;-68
2022/12/22 08:24:38;;;;;;;27.48;14.55;;;;;;;3.22;81.93;98047.75;5088667;28;20036;-67
2022/12/22 08:27:11;;;;;;;26.52;13.00;;;;;;;3.31;81.82;98042.66;5088943;28;20034;-67
2022/12/22 08:29:41;;;;;;;25.70;14.73;;;;;;;3.34;81.52;98039.44;5088109;28;20035;-66
2022/12/22 08:32:07;;;;;;;30.23;15.15;;;;;;;3.41;81.58;98041.94;5088610;28;20507;-66
2022/12/22 08:34:32;;;;;;;27.02;14.55;;;;;;;3.45;82.02;98040.34;5089065;28;20024;-66
2022/12/22 08:37:01;;;;;;;31.48;14.75;;;;;;;3.50;81.70;98028.72;5089331;28;20635;-67
2022/12/22 08:39:31;;;;;;;30.73;16.83;;;;;;;3.51;81.63;98022.22;5087519;28;20124;-67
2022/12/22 08:41:58;;;;;;;27.55;14.20;;;;;;;3.55;82.00;98018.72;5089542;28;20738;-67
2022/12/22 08:44:25;;;;;;;30.50;14.95;;;;;;;3.57;81.63;98011.13;5085751;28;20036;-67
2022/12/22 08:46:52;;;;;;;30.48;15.48;;;;;;;3.59;81.44;98010.88;5085552;28;20027;-68
2022/12/22 08:49:17;;;;;;;30.70;15.93;;;;;;;3.61;81.45;98010.63;5084580;28;20085;-68
2022/12/22 08:51:44;;;;;;;31.85;16.83;;;;;;;3.62;80.94;98004.13;5086262;28;20028;-69
2022/12/22 08:54:09;;;;;;;29.15;15.10;;;;;;;3.59;81.32;98010.88;5087101;28;20511;-68
2022/12/22 08:56:35;;;;;;;29.77;15.40;;;;;;;3.56;81.78;98006.78;5087690;28;20036;-68
2022/12/22 08:59:04;;;;;;;32.38;16.00;;;;;;;3.54;81.05;98008.16;5088160;28;20028;-68
2022/12/22 09:01:34;;;;;;;29.73;14.95;;;;;;;3.55;81.40;98002.44;5088392;28;20384;-68
2022/12/22 09:04:00;;;;;;;40.60;18.85;;;;;;;3.57;81.37;98003.00;5089184;28;20031;-67
2022/12/22 09:06:26;;;;;;;33.78;16.80;;;;;;;3.60;81.33;97998.97;5085694;28;20031;-67
2022/12/22 09:08:56;;;;;;;35.33;17.35;;;;;;;3.60;81.26;97992.72;5084170;28;20056;-68
2022/12/22 09:11:22;;;;;;;;;;;;;;;3.62;80.83;97994.09;5085209;28;20032;-67
2022/12/22 09:13:53;;;;;;;33.45;15.82;;;;;;;3.62;81.63;97982.41;5084839;28;19915;-67
2022/12/22 09:16:19;;;;;;;33.35;15.68;;;;;;;3.64;81.24;97985.69;5085374;28;20553;-68
2022/12/22 09:18:45;;;;;;;34.30;16.23;;;;;;;3.69;80.70;97978.38;5087559;28;20031;-68
2022/12/22 09:21:11;;;;;;;30.58;15.23;;;;;;;3.73;81.61;97973.28;5085840;28;20392;-68
2022/12/22 09:23:36;;;;;;;36.47;17.08;;;;;;;3.75;81.06;97979.25;5085034;28;20129;-68
2022/12/22 09:26:13;;;;;;;32.30;15.75;;;;;;;3.76;81.16;97974.63;5086500;28;20033;-67
2022/12/22 09:28:39;;;;;;;31.90;15.98;;;;;;;3.80;81.08;97971.13;5066399;28;20016;-67
2022/12/22 09:31:06;;;;;;;33.25;16.77;;;;;;;3.82;81.29;97960.84;5084755;28;20467;-67
2022/12/22 09:33:33;;;;;;;29.67;15.32;;;;;;;3.85;80.89;97960.31;5088375;28;20568;-67
2022/12/22 09:35:58;;;;;;;30.75;16.38;;;;;;;3.83;81.00;97948.06;5088777;28;20522;-67
2022/12/22 09:38:27;;;;;;;35.85;18.08;;;;;;;3.86;81.37;97950.28;5087508;28;20028;-67
2022/12/22 09:40:56;;;;;;;32.70;15.77;;;;;;;3.90;81.32;97951.38;5078938;28;20161;-67
2022/12/22 09:43:26;;;;;;;31.73;15.70;;;;;;;3.96;81.14;97949.47;5083303;28;20035;-67
2022/12/22 09:45:52;;;;;;;30.75;15.27;;;;;;;4.02;80.74;97951.13;5085281;28;20020;-67
2022/12/22 09:48:19;;;;;;;29.95;15.65;;;;;;;4.06;81.23;97946.00;5084760;28;20547;-66
2022/12/22 09:50:45;;;;;;;29.35;14.88;;;;;;;4.09;80.85;97962.56;5083685;28;20032;-65
2022/12/22 09:53:20;;;;;;;29.77;15.05;;;;;;;4.13;80.08;97949.28;5084396;28;20024;-64
2022/12/22 09:55:48;;;;;;;29.95;16.75;;;;;;;4.15;80.53;97941.69;5082672;28;20024;-65
2022/12/22 09:58:22;;;;;;;29.85;14.48;;;;;;;4.16;79.84;97936.00;5083354;28;20137;-65
2022/12/22 10:00:52;;;;;;;32.53;16.73;;;;;;;4.23;79.67;97938.44;5087632;28;20082;-64
2022/12/22 10:03:30;;;;;;;27.98;16.00;;;;;;;4.25;80.43;97940.91;5088972;28;20024;-64
2022/12/22 10:06:04;;;;;;;28.13;15.60;;;;;;;4.31;79.71;97923.53;5088461;28;20032;-65
2022/12/22 10:08:35;;;;;;;25.65;14.88;;;;;;;4.35;80.59;97919.19;5087688;28;20028;-65
2022/12/22 10:11:00;;;;;;;30.13;16.27;;;;;;;4.40;79.81;97908.34;5086744;28;20024;-66
2022/12/22 10:13:26;;;;;;;28.02;14.93;;;;;;;4.43;79.63;97901.59;5087699;28;20468;-66
2022/12/22 10:15:52;;;;;;;28.60;14.65;;;;;;;4.51;79.74;97911.88;5087634;28;20024;-66
2022/12/22 10:18:23;;;;;;;27.35;15.10;;;;;;;4.57;79.64;97899.16;5088330;28;20024;-65
2022/12/22 10:21:13;;;;;;;31.08;18.45;;;;;;;4.63;79.61;97898.06;5085378;28;20054;-66
2022/12/22 10:23:46;;;;;;;43.13;23.98;;;;;;;4.72;80.06;97888.25;5087849;28;20043;-66
2022/12/22 10:26:21;;;;;;;32.30;18.95;;;;;;;4.80;79.58;97867.91;5088436;28;20028;-65
2022/12/22 10:28:58;;;;;;;30.90;18.60;;;;;;;4.88;79.68;97877.41;5085694;28;20020;-66
2022/12/22 10:31:32;;;;;;;23.98;13.00;;;;;;;4.98;79.31;97877.41;5088657;28;20024;-66
2022/12/22 10:34:19;;;;;;;23.73;12.70;;;;;;;5.07;79.75;97869.50;5088476;28;20032;-64
2022/12/22 10:36:50;;;;;;;37.67;17.10;;;;;;;5.15;79.31;97865.38;5088507;28;20020;-66
2022/12/22 10:39:22;;;;;;;27.67;13.40;;;;;;;5.20;79.25;97870.81;5089523;28;20043;-66
2022/12/22 10:41:49;;;;;;;22.52;11.57;;;;;;;5.23;79.37;97864.84;5089521;28;20031;-66
2022/12/22 10:44:14;;;;;;;21.05;11.65;;;;;;;5.26;79.45;97867.00;5091104;28;20154;-65
2022/12/22 10:46:45;;;;;;;20.13;11.35;;;;;;;5.28;79.04;97859.38;5093905;28;20613;-67
2022/12/22 10:49:15;;;;;;;18.20;9.80;;;;;;;5.29;78.91;97858.28;5093470;28;20034;-66
2022/12/22 10:51:44;;;;;;;17.65;9.95;;;;;;;5.32;79.03;97860.47;5093683;28;20115;-66
2022/12/22 10:54:32;;;;;;;21.83;11.07;;;;;;;5.33;78.98;97862.09;5093321;28;20028;-65
2022/12/22 10:57:00;;;;;;;17.67;9.93;;;;;;;5.36;79.29;97858.81;5093418;28;20353;-66
2022/12/22 10:59:25;;;;;;;20.38;11.25;;;;;;;5.40;78.65;97853.63;5092784;28;20043;-66
2022/12/22 11:01:50;;;;;;;20.17;10.20;;;;;;;5.38;79.24;97847.66;5092820;28;20469;-65
2022/12/22 11:04:24;;;;;;;20.52;10.93;;;;;;;5.39;79.34;97840.31;5089549;28;20938;-67
2022/12/22 11:06:52;;;;;;;18.08;10.18;;;;;;;5.41;79.14;97847.09;5092829;28;20020;-66
2022/12/22 11:09:18;;;;;;;19.80;11.30;;;;;;;5.43;78.78;97852.28;5092030;28;20090;-66
2022/12/22 11:12:26;;;;;;;21.92;11.98;;;;;;;5.39;78.44;97843.03;5092139;28;20035;-69
2022/12/22 11:14:57;;;;;;;21.58;11.55;;;;;;;5.38;78.23;97841.41;5078073;28;20114;-66
2022/12/22 11:17:36;;;;;;;22.00;11.88;;;;;;;5.32;78.70;97848.75;5085794;28;20028;-65
2022/12/22 11:20:36;;;;;;;25.83;12.75;;;;;;;5.27;78.42;97849.59;5088865;28;20032;-66
2022/12/22 11:23:24;;;;;;;25.42;13.55;;;;;;;5.22;78.53;97845.00;5092037;28;20051;-66
2022/12/22 11:25:55;;;;;;;27.02;13.63;;;;;;;5.18;78.01;97843.94;5087436;28;20476;-66
2022/12/22 11:28:49;;;;;;;35.70;17.10;;;;;;;5.16;78.30;97851.53;5092307;28;20504;-66
2022/12/22 11:31:39;;;;;;;31.40;16.98;;;;;;;5.21;78.27;97843.38;5091751;28;20024;-65
2022/12/22 11:34:23;;;;;;;34.80;17.75;;;;;;;5.27;78.16;97846.88;5091982;28;20027;-65
2022/12/22 11:37:02;;;;;;;34.83;17.63;;;;;;;5.32;78.12;97844.16;5092492;28;20028;-66
2022/12/22 11:39:27;;;;;;;31.63;16.30;;;;;;;5.32;78.22;97836.00;5092474;28;20024;-66
2022/12/22 11:42:18;;;;;;;33.05;16.63;;;;;;;5.32;77.68;97827.84;5091927;28;20375;-66
2022/12/22 11:45:01;;;;;;;33.20;16.85;;;;;;;5.30;77.37;97826.50;5087702;28;20023;-65
2022/12/22 11:47:43;;;;;;;32.70;16.20;;;;;;;5.22;77.97;97823.25;5092581;28;20032;-65
2022/12/22 11:50:26;;;;;;;36.20;18.17;;;;;;;5.18;77.55;97824.06;5089860;28;20032;-66
2022/12/22 11:53:06;;;;;;;32.03;16.88;;;;;;;5.07;76.96;97815.97;5089814;28;20028;-66
2022/12/22 11:55:34;;;;;;;;;;;;;;;5.02;77.51;97815.97;5091162;28;20070;-66
2022/12/22 11:58:18;;;;;;;31.30;15.55;;;;;;;4.99;76.90;97815.69;5091771;28;19966;-67
2022/12/22 12:00:51;;;;;;;33.35;15.95;;;;;;;4.92;77.22;97807.84;5091082;28;20024;-66
2022/12/22 12:03:32;;;;;;;29.65;16.15;;;;;;;4.90;77.08;97794.50;5091586;28;20020;-66
2022/12/22 12:06:27;;;;;;;40.83;19.98;;;;;;;4.84;77.81;97789.38;5083084;28;20016;-67
2022/12/22 12:09:25;;;;;;;41.05;19.17;;;;;;;4.75;77.19;97797.28;5088980;28;20472;-68
2022/12/22 12:12:28;;;;;;;42.55;20.10;;;;;;;4.72;77.55;97793.19;5085325;28;20329;-64
2022/12/22 12:15:24;;;;;;;40.45;21.08;;;;;;;4.67;77.92;97793.22;5086413;28;20030;-64
2022/12/22 12:18:14;;;;;;;40.13;18.75;;;;;;;4.63;77.67;97789.41;5090310;28;20054;-65
2022/12/22 12:21:25;;;;;;;39.17;19.35;;;;;;;4.58;77.78;97790.22;5090256;28;20039;-67
2022/12/22 12:23:53;;;;;;;34.22;17.92;;;;;;;4.56;77.60;97783.44;5085933;28;20044;-64
2022/12/22 12:26:30;;;;;;;34.58;17.85;;;;;;;4.54;77.36;97793.78;5090464;28;20065;-65
2022/12/22 12:29:20;;;;;;;40.65;22.27;;;;;;;4.53;77.74;97789.44;5090306;28;20047;-65
2022/12/22 12:31:55;;;;;;;38.40;21.08;;;;;;;4.50;77.91;97788.06;5090242;28;21019;-67
2022/12/22 12:34:21;;;;;;;35.15;18.40;;;;;;;4.49;77.33;97786.41;5081260;28;20028;-66
2022/12/22 12:37:11;;;;;;;34.65;18.75;;;;;;;4.49;78.08;97780.19;5089462;28;20063;-66
2022/12/22 12:39:50;;;;;;;32.47;16.27;;;;;;;4.52;77.83;97776.94;5087399;28;20035;-66
2022/12/22 12:42:31;;;;;;;34.58;18.05;;;;;;;4.46;77.62;97774.22;5089482;28;20047;-65
2022/12/22 12:44:58;;;;;;;37.92;18.98;;;;;;;4.46;78.00;97774.22;5089943;28;20081;-66
2022/12/22 12:47:34;;;;;;;38.70;20.55;;;;;;;4.43;78.24;97769.34;5091723;28;20705;-66
2022/12/22 12:50:01;;;;;;;32.22;17.02;;;;;;;4.43;77.63;97760.38;5090304;28;20141;-65
2022/12/22 12:52:39;;;;;;;29.50;16.23;;;;;;;4.43;78.42;97747.59;5090291;28;20485;-66
2022/12/22 12:55:30;;;;;;;28.95;15.32;;;;;;;4.42;78.46;97754.13;5090717;28;20123;-66
2022/12/22 12:57:58;;;;;;;26.23;13.98;;;;;;;4.44;78.67;97759.31;5081815;28;20923;-67
2022/12/22 13:00:32;;;;;;;26.88;13.93;;;;;;;4.45;78.90;97747.34;5087205;28;20123;-67
2022/12/22 13:03:06;;;;;;;27.45;14.32;;;;;;;4.44;78.63;97751.94;5083825;28;20529;-66
2022/12/22 13:05:56;;;;;;;25.98;13.32;;;;;;;4.44;78.31;97757.38;5084897;28;20038;-67
2022/12/22 13:08:24;;;;;;;28.83;15.70;;;;;;;4.43;78.98;97749.53;5086559;28;20055;-67
2022/12/22 13:10:52;;;;;;;28.25;14.27;;;;;;;4.43;78.41;97757.69;5082527;28;20024;-67
2022/12/22 13:13:20;;;;;;;24.73;14.20;;;;;;;4.44;78.88;97762.00;5076046;28;20442;-65
2022/12/22 13:15:59;;;;;;;30.73;15.55;;;;;;;4.44;79.18;97765.53;5083438;28;20085;-67
2022/12/22 13:18:44;;;;;;;25.20;14.27;;;;;;;4.40;79.57;97756.31;5084679;28;20479;-68
2022/12/22 13:21:12;;;;;;;26.08;13.70;;;;;;;4.40;79.09;97758.22;5082080;28;20043;-69
2022/12/22 13:23:47;;;;;;;24.05;12.70;;;;;;;4.37;79.33;97748.69;5087537;28;20055;-68
2022/12/22 13:26:16;;;;;;;29.23;13.77;;;;;;;4.36;79.57;97746.28;5087355;28;20040;-68
2022/12/22 13:28:47;;;;;;;27.83;13.75;;;;;;;4.35;79.30;97737.28;5085870;28;20490;-68
2022/12/22 13:31:17;;;;;;;27.88;12.95;;;;;;;4.35;79.24;97745.44;5084611;28;20557;-68
2022/12/22 13:33:47;;;;;;;24.13;12.30;;;;;;;4.34;79.29;97745.72;5086578;28;20046;-69
2022/12/22 13:36:26;;;;;;;25.00;13.18;;;;;;;4.33;78.98;97744.91;5086536;28;20028;-67
2022/12/22 13:39:11;;;;;;;22.30;12.00;;;;;;;4.32;79.12;97737.84;5086922;28;20043;-67
2022/12/22 13:41:40;;;;;;;23.25;12.32;;;;;;;4.35;79.05;97742.72;5082625;28;20408;-67
2022/12/22 13:44:09;;;;;;;22.58;13.10;;;;;;;4.34;79.35;97741.09;5084077;28;20028;-68
2022/12/22 13:46:36;;;;;;;25.70;13.80;;;;;;;4.34;79.09;97743.81;5083943;28;20076;-68
2022/12/22 13:49:03;;;;;;;23.35;13.15;;;;;;;4.31;79.17;97734.31;5084292;28;20059;-68
2022/12/22 13:51:35;;;;;;;26.15;13.40;;;;;;;4.31;78.78;97733.50;5087197;28;20034;-68
2022/12/22 13:54:42;;;;;;;24.75;12.50;;;;;;;4.28;79.24;97740.31;5084160;28;20024;-68
2022/12/22 13:57:16;;;;;;;29.48;15.20;;;;;;;4.27;78.51;97737.88;5081597;28;20024;-68
2022/12/22 13:59:43;;;;;;;27.08;15.77;;;;;;;4.26;78.71;97739.75;5085880;28;20047;-70
2022/12/22 14:02:08;;;;;;;26.23;14.48;;;;;;;4.26;79.27;97738.97;5085507;28;20283;-71
2022/12/22 14:04:39;;;;;;;26.67;14.25;;;;;;;4.26;78.66;97749.81;5086385;28;20499;-68
2022/12/22 14:07:14;;;;;;;29.13;15.73;;;;;;;4.24;78.81;97744.66;5085173;28;20040;-68
2022/12/22 14:09:49;;;;;;;28.77;15.60;;;;;;;4.24;78.83;97743.84;5081217;28;20044;-68
2022/12/22 14:12:22;;;;;;;25.17;13.57;;;;;;;4.24;79.11;97733.00;5086311;28;20801;-69
2022/12/22 14:14:51;;;;;;;22.95;12.98;;;;;;;4.24;78.97;97731.06;5085563;28;20024;-67
2022/12/22 14:17:25;;;;;;;23.83;13.18;;;;;;;4.24;78.89;97728.34;5076224;28;20040;-67
2022/12/22 14:19:56;;;;;;;25.58;12.98;;;;;;;4.24;79.20;97724.84;5087576;28;20114;-67
2022/12/22 14:22:28;;;;;;;25.77;13.25;;;;;;;4.23;78.87;97726.72;5089704;28;20527;-67
2022/12/22 14:25:12;;;;;;;21.73;12.20;;;;;;;4.23;78.58;97718.59;5089633;28;20028;-68
2022/12/22 14:27:47;;;;;;;21.92;11.60;;;;;;;4.24;78.75;97714.00;5087772;28;20032;-68
2022/12/22 14:30:22;;;;;;;27.05;15.38;;;;;;;4.23;78.76;97707.72;5086658;28;20020;-68
2022/12/22 14:32:50;;;;;;;27.02;13.88;;;;;;;4.24;79.14;97706.63;5087487;28;20031;-69
2022/12/22 14:35:18;;;;;;;27.55;15.43;;;;;;;4.25;79.21;97715.63;5090043;28;20089;-67
2022/12/22 14:37:44;;;;;;;25.55;13.95;;;;;;;4.26;78.65;97719.97;5090118;28;20548;-67
2022/12/22 14:40:36;;;;;;;27.15;14.82;;;;;;;4.23;79.46;97723.22;5088962;28;20070;-69
2022/12/22 14:43:04;;;;;;;25.63;13.68;;;;;;;4.25;78.69;97721.03;5089764;28;20028;-69
2022/12/22 14:45:30;;;;;;;23.13;12.50;;;;;;;4.25;79.11;97716.41;5070775;28;20036;-69
2022/12/22 14:47:55;;;;;;;27.75;14.05;;;;;;;4.23;79.28;97710.44;5088495;28;20031;-68
2022/12/22 14:50:26;;;;;;;34.55;18.55;;;;;;;4.20;79.01;97707.47;5086477;28;20062;-70
2022/12/22 14:52:57;;;;;;;26.33;13.80;;;;;;;4.21;79.37;97712.63;5089646;28;20480;-69
2022/12/22 14:55:30;;;;;;;25.55;13.00;;;;;;;4.20;78.87;97721.03;5088402;28;20685;-67
2022/12/22 14:58:11;;;;;;;24.75;12.75;;;;;;;4.18;79.13;97707.72;5087244;28;20024;-67
2022/12/22 15:00:38;;;;;;;28.42;14.13;;;;;;;4.16;78.95;97701.75;5089149;28;20555;-67
2022/12/22 15:03:23;;;;;;;26.73;14.23;;;;;;;4.14;79.26;97688.47;5088565;28;20507;-70
2022/12/22 15:05:48;;;;;;;26.13;13.88;;;;;;;4.14;79.54;97698.50;5084705;28;20029;-67
2022/12/22 15:08:37;;;;;;;26.58;14.48;;;;;;;4.13;79.08;97695.00;5087506;28;20040;-67
2022/12/22 15:11:07;;;;;;;25.02;13.15;;;;;;;4.15;79.15;97695.53;5088911;28;20152;-70
2022/12/22 15:13:32;;;;;;;27.23;15.38;;;;;;;4.15;79.09;97703.69;5089876;28;20078;-69
2022/12/22 15:15:58;;;;;;;27.27;14.35;;;;;;;4.16;79.16;97705.31;5089477;28;20024;-67
2022/12/22 15:18:26;;;;;;;23.73;13.70;;;;;;;4.19;79.66;97709.34;5085735;28;20431;-69
2022/12/22 15:20:53;;;;;;;29.83;14.27;;;;;;;4.22;79.08;97708.00;5082771;28;20032;-69